Time;durP1;ratioP1;P1;durP2;ratioP2;P2;SDS_P1;SDS_P2;PMS_P1;PMS_P2;Temp;Humidity;BMP_temperature;BMP_pressure;BME280_temperature;BME280_humidity;BME280_pressure;Samples;Min_cycle;Max_cycle;Signal;HPM_P1;HPM_P2
2021/05/18 00:02:15;;;;;;;4.72;4.32;;;10.00;99.90;;;;;;5035772;28;20021;-73
2021/05/18 00:04:41;;;;;;;4.15;3.67;;;10.00;99.90;;;;;;5052918;28;20051;-73
2021/05/18 00:07:11;;;;;;;5.22;3.75;;;10.00;99.90;;;;;;5052561;28;20043;-73
2021/05/18 00:12:21;;;;;;;5.78;4.07;;;10.00;99.90;;;;;;5053178;28;20024;-73
2021/05/18 00:14:47;;;;;;;4.35;3.50;;;10.00;99.90;;;;;;5052765;28;20392;-73
2021/05/18 00:17:12;;;;;;;3.75;3.33;;;10.00;99.90;;;;;;5052721;28;20395;-73
2021/05/18 00:19:38;;;;;;;4.05;3.40;;;10.00;99.90;;;;;;5052422;28;20476;-72
2021/05/18 00:22:03;;;;;;;5.35;3.67;;;10.00;99.90;;;;;;5052213;28;20029;-72
2021/05/18 00:24:29;;;;;;;4.20;3.85;;;9.90;99.90;;;;;;5052514;28;20025;-73
2021/05/18 00:26:55;;;;;;;4.07;3.78;;;9.90;99.90;;;;;;5052150;28;20033;-72
2021/05/18 00:29:21;;;;;;;4.28;3.80;;;9.90;99.90;;;;;;5052059;28;20470;-72
2021/05/18 00:31:46;;;;;;;4.18;3.78;;;9.90;99.90;;;;;;5052294;28;20025;-72
2021/05/18 00:34:12;;;;;;;5.25;3.53;;;10.00;99.90;;;;;;5052242;28;20476;-72
2021/05/18 00:36:37;;;;;;;5.90;4.05;;;10.00;99.90;;;;;;5052150;28;20028;-72
2021/05/18 00:39:05;;;;;;;4.15;3.45;;;10.00;99.90;;;;;;5051635;28;20024;-72
2021/05/18 00:41:30;;;;;;;4.97;3.58;;;9.90;99.90;;;;;;5052110;28;20021;-72
2021/05/18 00:43:56;;;;;;;5.45;3.95;;;10.10;99.90;;;;;;5052149;28;20075;-72
2021/05/18 00:46:23;;;;;;;6.97;4.20;;;10.00;99.90;;;;;;5052390;28;20031;-72
2021/05/18 00:48:58;;;;;;;4.47;3.70;;;9.90;99.90;;;;;;5051762;28;20017;-72
2021/05/18 00:51:27;;;;;;;4.50;3.88;;;9.90;99.90;;;;;;5051791;28;20033;-72
2021/05/18 00:53:55;;;;;;;5.78;3.70;;;9.90;99.90;;;;;;5045025;28;20021;-72
2021/05/18 00:58:26;;;;;;;5.88;4.30;;;10.00;99.90;;;;;;5042550;28;20017;-72
2021/05/18 00:59:18;;;;;;;4.50;4.10;;;9.90;99.90;;;;;;5048682;28;20028;-73
2021/05/18 01:01:44;;;;;;;4.43;4.00;;;9.90;99.90;;;;;;5051812;28;20021;-72
2021/05/18 01:04:13;;;;;;;5.45;3.97;;;9.90;99.90;;;;;;5051688;28;20523;-72
2021/05/18 01:06:40;;;;;;;4.35;3.83;;;9.90;99.90;;;;;;5042227;28;20500;-72
2021/05/18 01:09:13;;;;;;;5.05;3.80;;;9.80;99.90;;;;;;5051091;28;20561;-72
2021/05/18 01:11:41;;;;;;;4.25;3.70;;;10.00;99.90;;;;;;5051626;28;20093;-72
2021/05/18 01:14:14;;;;;;;4.55;3.10;;;10.10;99.90;;;;;;5051491;28;20024;-73
2021/05/18 01:16:44;;;;;;;4.38;3.67;;;10.00;99.90;;;;;;5051785;28;20025;-74
2021/05/18 01:19:10;;;;;;;4.13;3.70;;;10.00;99.90;;;;;;5051379;28;20053;-73
2021/05/18 01:21:36;;;;;;;4.55;3.75;;;10.00;99.90;;;;;;5051036;28;20059;-73
2021/05/18 01:24:02;;;;;;;7.40;4.43;;;9.90;99.90;;;;;;5040810;28;20556;-72
2021/05/18 01:26:30;;;;;;;5.05;4.03;;;9.90;99.90;;;;;;5051402;28;20025;-73
2021/05/18 01:28:56;;;;;;;5.47;4.43;;;9.90;99.90;;;;;;5051344;28;20021;-73
2021/05/18 01:31:24;;;;;;;4.63;3.78;;;9.90;99.90;;;;;;5051222;28;20025;-73
2021/05/18 01:33:51;;;;;;;6.00;4.30;;;9.90;99.90;;;;;;5051458;28;20017;-73
2021/05/18 01:36:19;;;;;;;6.13;4.07;;;9.80;99.90;;;;;;5051381;28;20052;-72
2021/05/18 01:44:01;;;;;;;5.47;4.53;;;9.90;99.90;;;;;;5051833;28;20117;-74
2021/05/18 01:46:28;;;;;;;4.88;4.35;;;9.90;99.90;;;;;;5051386;28;20031;-73
2021/05/18 01:49:00;;;;;;;6.43;5.15;;;9.80;99.90;;;;;;5051228;28;20035;-73
2021/05/18 01:51:32;;;;;;;6.53;5.03;;;9.80;99.90;;;;;;5051142;28;20072;-73
2021/05/18 01:54:03;;;;;;;6.93;5.03;;;9.90;99.90;;;;;;5051427;28;20021;-74
2021/05/18 01:59:08;;;;;;;10.80;5.53;;;9.80;99.90;;;;;;5051063;28;20029;-73
2021/05/18 02:01:34;;;;;;;6.97;5.55;;;9.70;99.90;;;;;;5051254;28;20021;-72
2021/05/18 02:04:01;;;;;;;9.13;5.40;;;9.70;99.90;;;;;;5051477;28;20048;-72
2021/05/18 02:06:28;;;;;;;8.45;5.72;;;9.70;99.90;;;;;;5054853;28;20033;-72
2021/05/18 02:08:54;;;;;;;6.28;5.55;;;9.80;99.90;;;;;;5036976;28;20561;-72
2021/05/18 02:11:20;;;;;;;7.13;6.20;;;9.70;99.90;;;;;;5054927;28;20033;-72
2021/05/18 02:13:48;;;;;;;9.82;5.88;;;9.70;99.90;;;;;;5055027;28;20063;-73
2021/05/18 02:16:26;;;;;;;6.70;6.10;;;9.70;99.90;;;;;;5054950;28;20082;-73
2021/05/18 02:26:49;;;;;;;7.05;6.45;;;9.70;99.90;;;;;;5054905;28;20442;-73
2021/05/18 02:29:14;;;;;;;7.07;5.82;;;9.80;99.90;;;;;;5054392;28;20021;-73
2021/05/18 02:31:40;;;;;;;7.60;6.68;;;9.70;99.90;;;;;;5054711;28;20354;-73
2021/05/18 02:34:05;;;;;;;7.22;6.60;;;9.60;99.90;;;;;;5054643;28;20369;-73
2021/05/18 02:36:31;;;;;;;8.00;7.20;;;9.60;99.90;;;;;;5054490;28;21502;-74
2021/05/18 02:38:57;;;;;;;7.35;6.65;;;9.70;99.90;;;;;;5036602;28;20531;-73
2021/05/18 02:41:23;;;;;;;7.43;6.70;;;9.60;99.90;;;;;;5054262;28;20068;-72
2021/05/18 02:43:53;;;;;;;7.28;6.68;;;9.50;99.90;;;;;;5054527;28;20056;-72
2021/05/18 02:51:30;;;;;;;9.43;7.90;;;9.50;99.90;;;;;;5054017;28;20092;-74
2021/05/18 02:53:56;;;;;;;10.30;7.72;;;9.50;99.90;;;;;;5054538;28;20052;-72
2021/05/18 02:58:57;;;;;;;8.85;7.57;;;9.60;99.90;;;;;;5053869;28;20021;-72
2021/05/18 03:01:23;;;;;;;8.32;7.53;;;9.50;99.90;;;;;;5040838;28;20440;-73
2021/05/18 03:03:49;;;;;;;8.68;7.88;;;9.50;99.90;;;;;;5054049;28;20058;-73
2021/05/18 03:06:15;;;;;;;9.25;7.97;;;9.50;99.90;;;;;;5040599;28;20094;-73
2021/05/18 03:08:40;;;;;;;9.25;8.38;;;9.50;99.90;;;;;;5053746;28;20037;-73
2021/05/18 03:11:10;;;;;;;9.25;7.60;;;9.50;99.90;;;;;;5053577;28;20053;-73
2021/05/18 03:13:36;;;;;;;10.25;8.20;;;9.50;99.90;;;;;;5053826;28;20100;-73
2021/05/18 03:16:02;;;;;;;11.43;8.65;;;9.40;99.90;;;;;;5039495;28;20021;-73
2021/05/18 03:18:28;;;;;;;9.10;8.07;;;9.40;99.90;;;;;;5053579;28;20029;-75
2021/05/18 03:20:53;;;;;;;10.52;8.00;;;9.40;99.90;;;;;;5053622;28;20024;-74
2021/05/18 03:23:19;;;;;;;8.57;7.78;;;9.40;99.90;;;;;;5053595;28;20029;-74
2021/05/18 03:25:45;;;;;;;9.23;7.70;;;9.50;99.90;;;;;;5053599;28;20071;-74
2021/05/18 03:28:10;;;;;;;10.95;7.80;;;9.50;99.90;;;;;;5035538;28;20025;-73
2021/05/18 03:30:49;;;;;;;10.68;7.63;;;9.40;99.90;;;;;;5035403;28;20032;-74
2021/05/18 03:35:59;;;;;;;7.55;6.72;;;9.50;99.90;;;;;;5053620;28;20028;-73
2021/05/18 03:38:46;;;;;;;8.30;7.35;;;9.40;99.90;;;;;;5053331;28;20025;-73
2021/05/18 03:41:16;;;;;;;7.40;6.70;;;9.40;99.90;;;;;;5053418;28;20151;-74
2021/05/18 03:43:56;;;;;;;7.53;6.45;;;9.40;99.90;;;;;;5035493;28;20515;-73
2021/05/18 04:10:10;;;;;;;7.43;6.45;;;9.50;99.90;;;;;;5053044;28;20447;-73
2021/05/18 04:21:14;;;;;;;7.85;5.25;;;9.50;99.90;;;;;;5052521;28;20491;-72
2021/05/18 04:40:16;;;;;;;7.88;5.63;;;9.50;99.90;;;;;;5052093;28;20059;-72
2021/05/18 04:42:55;;;;;;;6.50;5.03;;;9.50;99.90;;;;;;5052041;28;20028;-72
2021/05/18 04:51:08;;;;;;;6.00;5.50;;;9.60;99.90;;;;;;5051693;28;20079;-73
2021/05/18 05:01:49;;;;;;;6.47;5.88;;;9.60;99.90;;;;;;5052084;28;20021;-73
2021/05/18 05:09:29;;;;;;;7.00;6.07;;;9.80;99.90;;;;;;5051642;28;20469;-74
2021/05/18 05:14:39;;;;;;;8.10;6.63;;;9.80;99.90;;;;;;5051798;28;20127;-73
2021/05/18 05:17:05;;;;;;;9.00;6.32;;;9.80;99.90;;;;;;5051612;28;20132;-74
2021/05/18 05:19:31;;;;;;;6.63;5.90;;;9.70;99.90;;;;;;5051257;28;20366;-74
2021/05/18 05:21:58;;;;;;;9.10;5.60;;;9.80;99.90;;;;;;5067073;28;20021;-73
2021/05/18 05:24:24;;;;;;;6.53;5.90;;;9.80;99.90;;;;;;5033657;28;20021;-73
2021/05/18 05:26:50;;;;;;;8.65;5.25;;;9.90;99.90;;;;;;5051524;28;20134;-74
2021/05/18 05:29:17;;;;;;;7.72;5.57;;;9.90;99.90;;;;;;5051298;28;20488;-74
2021/05/18 05:31:42;;;;;;;5.97;5.22;;;9.90;99.90;;;;;;5051411;28;20025;-73
2021/05/18 05:34:09;;;;;;;7.90;5.82;;;10.00;99.90;;;;;;5051429;28;20036;-75
2021/05/18 05:36:35;;;;;;;8.30;5.43;;;10.00;99.90;;;;;;5034352;28;20027;-74
2021/05/18 05:39:04;;;;;;;7.18;5.30;;;10.00;99.90;;;;;;5051720;28;20029;-73
2021/05/18 05:41:30;;;;;;;5.90;5.30;;;10.30;99.90;;;;;;5055929;28;20040;-72
2021/05/18 05:43:56;;;;;;;7.93;5.40;;;10.10;99.90;;;;;;5056395;28;20476;-72
2021/05/18 05:46:21;;;;;;;6.28;4.80;;;10.10;99.90;;;;;;5055675;28;20465;-72
2021/05/18 05:48:52;;;;;;;11.68;6.18;;;10.20;99.90;;;;;;5055451;28;20451;-73
2021/05/18 05:51:19;;;;;;;6.03;5.00;;;10.20;99.90;;;;;;5055339;28;20029;-73
2021/05/18 05:53:45;;;;;;;6.75;4.93;;;10.30;99.90;;;;;;5055623;28;20025;-73
2021/05/18 05:56:11;;;;;;;5.90;5.05;;;10.30;99.90;;;;;;5055376;28;20025;-72
2021/05/18 05:58:36;;;;;;;5.75;4.97;;;10.20;99.90;;;;;;5055414;28;20112;-73
2021/05/18 06:01:02;;;;;;;7.28;4.65;;;10.20;99.90;;;;;;5037202;28;20116;-73
2021/05/18 06:03:28;;;;;;;6.63;4.85;;;10.30;99.90;;;;;;5037681;28;20128;-73
2021/05/18 06:05:53;;;;;;;8.20;4.90;;;10.30;99.90;;;;;;5055179;28;20108;-72
2021/05/18 06:08:19;;;;;;;5.97;4.65;;;10.20;99.90;;;;;;5055056;28;20032;-72
2021/05/18 06:10:47;;;;;;;5.30;4.78;;;10.10;99.90;;;;;;5054908;28;20509;-75
2021/05/18 06:29:49;;;;;;;4.32;3.65;;;10.60;99.90;;;;;;5044294;28;20035;-74
2021/05/18 06:48:39;;;;;;;3.30;3.00;;;11.30;99.90;;;;;;5054321;28;20158;-73
2021/05/18 06:51:05;;;;;;;4.68;3.08;;;11.00;99.90;;;;;;5054647;28;20156;-74
2021/05/18 06:53:30;;;;;;;4.13;2.78;;;11.00;99.90;;;;;;5060181;28;20096;-75
2021/05/18 06:55:57;;;;;;;3.75;3.08;;;11.30;99.90;;;;;;5060158;28;20074;-73
2021/05/18 07:00:06;;;;;;;5.45;2.80;;;11.50;99.90;;;;;;5053729;28;20033;-74
2021/05/18 07:01:19;;;;;;;4.45;2.28;;;11.60;99.90;;;;;;5052567;28;20052;-72
2021/05/18 07:03:47;;;;;;;2.50;2.30;;;11.40;99.90;;;;;;5059144;28;20496;-76
2021/05/18 07:11:19;;;;;;;5.07;2.92;;;11.10;99.90;;;;;;5054004;28;20396;-75
2021/05/18 07:13:44;;;;;;;2.78;2.53;;;11.10;99.90;;;;;;5035796;28;20112;-75
2021/05/18 07:16:10;;;;;;;4.97;3.33;;;11.10;99.90;;;;;;5053801;28;20575;-75
2021/05/18 07:18:35;;;;;;;4.80;2.20;;;11.30;99.90;;;;;;5053699;28;20028;-76
2021/05/18 07:21:02;;;;;;;7.63;5.35;;;11.30;99.90;;;;;;5053541;28;20029;-75
2021/05/18 07:23:28;;;;;;;5.15;3.13;;;11.20;99.90;;;;;;5035844;28;20054;-75
2021/05/18 07:25:53;;;;;;;6.82;2.38;;;11.30;99.90;;;;;;5053666;28;20482;-75
2021/05/18 07:28:20;;;;;;;2.25;2.05;;;11.20;99.90;;;;;;5035484;28;20035;-75
2021/05/18 07:30:48;;;;;;;2.95;2.47;;;11.20;99.90;;;;;;5053359;28;20013;-75
2021/05/18 07:33:13;;;;;;;5.45;2.00;;;11.50;99.90;;;;;;5053476;28;20029;-76
2021/05/18 07:35:39;;;;;;;3.30;2.20;;;12.00;99.90;;;;;;5035445;28;20198;-75
2021/05/18 07:38:05;;;;;;;2.55;2.03;;;12.00;99.90;;;;;;5035122;28;20025;-75
2021/05/18 07:40:32;;;;;;;3.30;1.85;;;11.80;99.90;;;;;;5035239;28;20087;-76
2021/05/18 07:42:58;;;;;;;3.72;1.90;;;11.70;99.90;;;;;;5053183;28;20396;-75
2021/05/18 07:45:29;;;;;;;2.92;2.28;;;11.50;99.90;;;;;;5035218;28;20025;-76
2021/05/18 07:48:05;;;;;;;5.28;2.50;;;11.50;99.90;;;;;;5053018;28;20039;-76
2021/05/18 07:50:46;;;;;;;3.45;1.85;;;11.60;99.90;;;;;;5034977;28;20021;-75
2021/05/18 08:06:53;;;;;;;3.60;1.70;;;12.40;99.90;;;;;;5053028;28;20035;-75
2021/05/18 08:09:21;;;;;;;1.80;1.70;;;12.40;99.90;;;;;;5052454;28;20148;-76
2021/05/18 08:11:46;;;;;;;3.83;1.88;;;12.00;99.90;;;;;;5052749;28;20017;-75
2021/05/18 08:14:12;;;;;;;5.45;1.80;;;11.70;99.90;;;;;;5051196;28;20025;-76
2021/05/18 08:16:56;;;;;;;3.10;1.90;;;11.80;99.90;;;;;;5032614;28;20035;-76
2021/05/18 08:20:05;;;;;;;3.10;1.80;;;11.80;99.90;;;;;;5021093;28;20025;-75
2021/05/18 08:23:11;;;;;;;3.33;1.70;;;12.30;99.90;;;;;;5050331;28;20027;-76
2021/05/18 09:02:16;;;;;;;3.08;2.05;;;11.90;99.90;;;;;;5049618;28;20040;-75
2021/05/18 10:26:51;;;;;;;2.65;1.50;;;12.80;99.90;;;;;;5052889;28;20414;-75
2021/05/18 10:36:42;;;;;;;3.05;1.50;;;15.00;99.90;;;;;;5054517;28;20025;-75
2021/05/18 10:39:21;;;;;;;1.77;1.40;;;14.80;99.90;;;;;;5053947;28;20017;-75
2021/05/18 10:41:47;;;;;;;1.55;1.45;;;14.40;99.90;;;;;;5054307;28;20039;-75
2021/05/18 10:44:13;;;;;;;2.35;1.50;;;14.60;99.90;;;;;;5054567;28;20025;-75
2021/05/18 10:46:51;;;;;;;5.40;1.50;;;14.80;99.90;;;;;;5054467;28;20032;-75
2021/05/18 10:49:36;;;;;;;1.50;1.40;;;15.30;99.90;;;;;;5049306;28;20048;-75
2021/05/18 10:52:08;;;;;;;2.15;1.70;;;14.80;99.90;;;;;;5050701;28;20112;-75
2021/05/18 10:54:36;;;;;;;2.25;1.55;;;14.40;99.90;;;;;;5054087;28;20393;-75
2021/05/18 10:57:12;;;;;;;3.45;1.40;;;14.30;99.90;;;;;;5053917;28;20021;-75
2021/05/18 10:59:55;;;;;;;3.58;1.63;;;14.70;99.90;;;;;;5039710;28;20065;-74
2021/05/18 11:02:29;;;;;;;4.82;1.65;;;15.40;99.90;;;;;;5053949;28;20029;-75
2021/05/18 11:04:56;;;;;;;2.28;1.70;;;15.80;99.90;;;;;;5053732;28;20064;-75
2021/05/18 11:07:41;;;;;;;1.65;1.50;;;16.20;99.90;;;;;;5053577;28;20047;-75
2021/05/18 11:10:08;;;;;;;3.47;1.40;;;15.60;99.90;;;;;;5053596;28;20024;-75
2021/05/18 11:12:35;;;;;;;2.33;1.58;;;14.40;99.90;;;;;;5053748;28;20028;-75
2021/05/18 11:15:01;;;;;;;2.38;1.77;;;14.20;99.90;;;;;;5053790;28;20017;-75
2021/05/18 11:17:35;;;;;;;1.55;1.45;;;13.90;99.90;;;;;;5045418;28;20606;-75
2021/05/18 11:21:06;;;;;;;2.28;1.67;;;13.60;99.90;;;;;;5026960;28;20021;-75
2021/05/18 11:23:30;;;;;;;3.92;1.98;;;13.20;99.90;;;;;;5044895;28;20496;-75
2021/05/18 11:26:03;;;;;;;2.35;1.80;;;13.00;99.90;;;;;;5053488;28;20029;-75
2021/05/18 11:28:37;;;;;;;3.03;1.95;;;12.70;99.90;;;;;;5043535;28;20025;-75
2021/05/18 11:31:16;;;;;;;1.75;1.65;;;12.80;99.90;;;;;;5042860;28;20025;-75
2021/05/18 11:33:47;;;;;;;2.10;1.90;;;12.90;99.90;;;;;;5053504;28;20500;-75
2021/05/18 11:36:18;;;;;;;2.00;1.85;;;14.00;99.90;;;;;;5053129;28;20021;-75
2021/05/18 11:38:55;;;;;;;1.83;1.30;;;14.50;99.90;;;;;;5052570;28;20504;-75
2021/05/18 11:41:37;;;;;;;1.42;1.30;;;15.10;99.90;;;;;;5053132;28;20031;-74
2021/05/18 11:44:04;;;;;;;1.92;1.25;;;14.50;99.90;;;;;;5053245;28;20067;-74
2021/05/18 11:46:33;;;;;;;1.95;1.33;;;14.20;99.90;;;;;;5053270;28;20388;-74
2021/05/18 11:49:11;;;;;;;1.60;1.30;;;14.60;99.90;;;;;;5035122;28;20025;-76
2021/05/18 11:51:51;;;;;;;2.33;1.50;;;15.10;99.90;;;;;;5021817;28;20057;-76
2021/05/18 11:54:28;;;;;;;1.38;1.27;;;15.70;99.90;;;;;;5053026;28;20082;-76
2021/05/18 11:56:57;;;;;;;2.08;1.50;;;16.00;99.90;;;;;;5053107;28;20032;-75
2021/05/18 11:59:24;;;;;;;1.90;1.13;;;15.70;99.90;;;;;;5034716;28;20025;-75
2021/05/18 12:01:53;;;;;;;1.35;1.10;;;15.60;99.90;;;;;;5052936;28;20025;-74
2021/05/18 12:04:24;;;;;;;1.30;1.20;;;16.10;99.90;;;;;;5052853;28;20021;-74
2021/05/18 12:07:16;;;;;;;2.35;1.38;;;15.70;99.90;;;;;;5052889;28;20072;-75
2021/05/18 12:09:44;;;;;;;1.85;1.27;;;16.10;99.90;;;;;;5032805;28;20108;-74
2021/05/18 12:12:14;;;;;;;1.52;1.30;;;15.50;99.90;;;;;;5047980;28;20059;-74
2021/05/18 12:14:45;;;;;;;1.52;1.40;;;16.20;99.90;;;;;;5034828;28;20032;-75
2021/05/18 12:17:11;;;;;;;1.50;1.10;;;16.80;99.90;;;;;;5034790;28;20028;-74
2021/05/18 12:19:40;;;;;;;5.25;1.45;;;16.60;99.90;;;;;;5052321;28;20435;-74
2021/05/18 12:22:06;;;;;;;2.45;1.40;;;15.80;99.90;;;;;;5052500;28;20025;-74
2021/05/18 12:24:39;;;;;;;2.10;1.42;;;14.80;99.90;;;;;;5052426;28;20028;-74
2021/05/18 12:27:06;;;;;;;1.70;1.60;;;14.50;99.90;;;;;;5052474;28;20017;-74
2021/05/18 12:29:37;;;;;;;4.45;1.95;;;14.20;99.90;;;;;;5034160;28;20021;-74
2021/05/18 12:32:31;;;;;;;3.42;1.80;;;13.80;99.90;;;;;;5052623;28;20423;-74
2021/05/18 12:35:03;;;;;;;2.33;1.60;;;13.70;99.90;;;;;;5052286;28;20044;-74
2021/05/18 12:37:33;;;;;;;3.55;2.10;;;13.60;99.90;;;;;;5034172;28;20021;-74
2021/05/18 12:40:01;;;;;;;3.40;2.28;;;13.70;99.90;;;;;;5051989;28;20020;-74
2021/05/18 12:42:29;;;;;;;4.45;2.30;;;13.70;99.90;;;;;;5052088;28;20434;-74
2021/05/18 12:44:59;;;;;;;2.45;2.05;;;14.00;99.90;;;;;;5052094;28;20017;-74
2021/05/18 12:47:41;;;;;;;2.08;1.85;;;14.10;99.90;;;;;;5042698;28;20031;-75
2021/05/18 12:50:11;;;;;;;3.67;1.75;;;14.60;99.90;;;;;;5040097;28;20063;-75
2021/05/18 12:52:38;;;;;;;4.47;2.03;;;14.50;99.90;;;;;;5051878;28;20029;-75
2021/05/18 12:55:15;;;;;;;3.28;2.03;;;14.60;99.90;;;;;;5052044;28;20028;-75
2021/05/18 12:57:57;;;;;;;2.08;1.90;;;15.20;99.90;;;;;;5033815;28;20057;-75
2021/05/18 13:00:27;;;;;;;2.08;1.90;;;15.00;99.90;;;;;;5051739;28;20025;-75
2021/05/18 13:02:53;;;;;;;4.15;2.25;;;15.50;99.90;;;;;;5033842;28;20116;-75
2021/05/18 13:05:25;;;;;;;3.90;2.10;;;16.20;99.90;;;;;;5051717;28;20105;-75
2021/05/18 13:08:08;;;;;;;1.75;1.65;;;16.80;99.90;;;;;;5038401;28;20501;-75
2021/05/18 13:12:12;;;;;;;2.53;1.58;;;15.80;99.90;;;;;;5051426;28;20029;-75
2021/05/18 13:13:25;;;;;;;2.58;1.88;;;15.10;99.90;;;;;;5040646;28;20086;-75
2021/05/18 13:16:06;;;;;;;2.20;1.77;;;14.80;99.90;;;;;;5051603;28;20044;-75
2021/05/18 13:18:32;;;;;;;3.85;1.80;;;14.70;99.90;;;;;;5051442;28;20842;-75
2021/05/18 13:20:57;;;;;;;2.90;2.30;;;14.80;99.90;;;;;;5051357;28;20111;-75
2021/05/18 13:28:38;;;;;;;2.75;1.50;;;17.00;99.90;;;;;;5051291;28;20116;-75
2021/05/18 13:31:05;;;;;;;3.88;1.60;;;16.30;99.90;;;;;;5033367;28;20031;-75
2021/05/18 13:33:31;;;;;;;4.43;2.35;;;15.80;99.90;;;;;;5051398;28;20024;-75
2021/05/18 13:35:57;;;;;;;2.10;2.00;;;17.40;99.90;;;;;;5051367;28;20025;-75
2021/05/18 13:38:22;;;;;;;3.40;2.22;;;18.50;99.90;;;;;;5051163;28;20033;-75
2021/05/18 13:40:48;;;;;;;1.90;1.80;;;19.10;99.90;;;;;;5033230;28;20070;-75
2021/05/18 13:43:15;;;;;;;2.47;1.40;;;19.30;99.90;;;;;;5033490;28;20082;-75
2021/05/18 13:45:40;;;;;;;2.58;1.45;;;17.60;99.90;;;;;;5051256;28;20477;-76
2021/05/18 13:48:07;;;;;;;1.40;1.30;;;16.60;99.90;;;;;;5051222;28;20208;-75
2021/05/18 13:50:33;;;;;;;1.85;1.40;;;16.10;99.90;;;;;;5050951;28;20078;-75
2021/05/18 13:52:59;;;;;;;2.40;1.58;;;15.80;99.90;;;;;;5051297;28;20391;-75
2021/05/18 13:55:25;;;;;;;2.25;1.50;;;15.80;99.90;;;;;;5051275;28;20104;-75
2021/05/18 13:57:51;;;;;;;3.78;1.40;;;15.80;99.90;;;;;;5051117;28;20067;-75
2021/05/18 14:00:18;;;;;;;2.22;1.30;;;15.50;99.90;;;;;;5033803;28;20403;-75
2021/05/18 14:02:45;;;;;;;3.28;1.40;;;15.40;99.90;;;;;;5055117;28;20090;-75
2021/05/18 14:05:14;;;;;;;4.15;1.92;;;15.60;99.90;;;;;;5055108;28;20024;-75
2021/05/18 14:10:56;;;;;;;2.08;1.98;;;16.00;99.90;;;;;;5054782;28;20515;-76
2021/05/18 14:13:23;;;;;;;2.90;1.95;;;16.80;99.90;;;;;;5054959;28;20024;-76
2021/05/18 14:15:48;;;;;;;2.40;2.20;;;16.30;99.90;;;;;;5037094;28;20024;-76
2021/05/18 14:18:14;;;;;;;3.00;2.55;;;18.40;99.90;;;;;;5054811;28;20029;-76
2021/05/18 14:20:41;;;;;;;2.63;2.30;;;19.40;99.90;;;;;;5030637;28;20040;-76
2021/05/18 14:23:07;;;;;;;2.03;1.92;;;20.00;99.90;;;;;;5029685;28;20547;-76
2021/05/18 14:25:33;;;;;;;3.70;1.55;;;19.80;99.90;;;;;;5054683;28;20044;-76
2021/05/18 14:27:59;;;;;;;4.13;1.83;;;19.50;99.90;;;;;;5054556;28;20032;-76
2021/05/18 14:30:25;;;;;;;1.90;1.70;;;17.50;99.90;;;;;;5054358;28;20021;-76
2021/05/18 14:32:51;;;;;;;2.70;1.67;;;16.50;99.90;;;;;;5036667;28;20516;-75
2021/05/18 14:35:16;;;;;;;3.65;1.60;;;16.50;99.90;;;;;;5054535;28;20032;-75
2021/05/18 14:37:44;;;;;;;2.40;2.20;;;15.50;99.90;;;;;;5036835;28;20116;-75
2021/05/18 14:42:51;;;;;;;1.92;1.70;;;17.20;99.90;;;;;;5054800;28;20065;-76
2021/05/18 14:45:20;;;;;;;2.05;1.80;;;16.60;99.90;;;;;;5042342;28;20103;-76
2021/05/18 14:56:01;;;;;;;4.13;1.80;;;15.20;99.90;;;;;;5054056;28;20032;-76
2021/05/18 14:58:26;;;;;;;3.10;2.00;;;15.50;99.90;;;;;;5053900;28;20029;-76
2021/05/18 15:00:52;;;;;;;2.88;2.30;;;15.50;99.90;;;;;;5035608;28;20024;-75
2021/05/18 15:03:17;;;;;;;3.30;2.15;;;15.30;99.90;;;;;;5035957;28;20052;-76
2021/05/18 15:05:43;;;;;;;4.95;2.03;;;15.20;99.90;;;;;;5053785;28;20095;-75
2021/05/18 15:08:09;;;;;;;2.25;2.00;;;14.90;99.90;;;;;;5053498;28;20061;-75
2021/05/18 15:10:35;;;;;;;3.40;1.90;;;14.70;99.90;;;;;;5035416;28;20014;-75
2021/05/18 15:13:02;;;;;;;3.25;2.95;;;14.60;99.90;;;;;;5053423;28;20059;-75
2021/05/18 15:15:28;;;;;;;3.78;1.90;;;17.40;99.90;;;;;;5055816;28;20073;-76
2021/05/18 15:17:57;;;;;;;4.90;2.05;;;18.20;99.90;;;;;;5035553;28;20491;-76
2021/05/18 15:20:23;;;;;;;2.60;1.42;;;16.50;99.90;;;;;;5035621;28;20136;-76
2021/05/18 15:22:50;;;;;;;2.53;1.50;;;15.30;99.90;;;;;;5053334;28;20045;-75
2021/05/18 15:25:16;;;;;;;1.60;1.33;;;14.60;99.90;;;;;;5053547;28;20480;-75
2021/05/18 15:27:41;;;;;;;2.63;1.52;;;14.30;99.90;;;;;;5035605;28;20080;-75
2021/05/18 15:30:10;;;;;;;2.83;1.60;;;14.10;99.90;;;;;;5058661;28;20088;-76
2021/05/18 15:32:36;;;;;;;4.75;2.10;;;13.50;99.90;;;;;;5053374;28;20456;-75
2021/05/18 15:35:06;;;;;;;5.07;2.08;;;12.60;99.90;;;;;;5053397;28;20045;-75
2021/05/18 15:37:32;;;;;;;2.88;2.05;;;12.10;99.90;;;;;;5052907;28;20499;-75
2021/05/18 15:39:57;;;;;;;6.20;2.45;;;11.40;99.90;;;;;;5068408;28;20025;-75
2021/05/18 15:42:23;;;;;;;3.17;2.63;;;11.50;99.90;;;;;;5043609;28;20484;-75
2021/05/18 15:44:48;;;;;;;3.63;3.28;;;11.60;99.90;;;;;;5045070;28;20021;-75
2021/05/18 15:47:14;;;;;;;3.53;2.67;;;13.50;99.90;;;;;;5051534;28;20021;-75
2021/05/18 15:49:40;;;;;;;3.42;2.85;;;15.70;99.90;;;;;;5037121;28;20025;-75
2021/05/18 15:52:06;;;;;;;3.90;2.33;;;16.50;99.90;;;;;;5041665;28;20144;-75
2021/05/18 15:54:31;;;;;;;3.78;2.70;;;17.00;99.90;;;;;;5051683;28;20017;-75
2021/05/18 15:56:58;;;;;;;2.47;2.15;;;17.30;99.90;;;;;;5051351;28;20072;-74
2021/05/18 15:59:24;;;;;;;3.40;2.60;;;17.60;99.90;;;;;;5051436;28;20029;-75
2021/05/18 16:01:49;;;;;;;2.85;2.13;;;18.20;99.90;;;;;;5044944;28;20032;-75
2021/05/18 16:04:15;;;;;;;2.00;1.80;;;19.30;99.90;;;;;;5052782;28;20028;-75
2021/05/18 16:06:44;;;;;;;2.42;2.00;;;19.20;99.90;;;;;;5052685;28;20358;-75
2021/05/18 16:09:13;;;;;;;3.20;2.15;;;19.60;99.90;;;;;;5034563;28;20025;-75
2021/05/18 16:11:39;;;;;;;2.10;1.90;;;19.30;99.90;;;;;;5043041;28;20427;-75
2021/05/18 16:14:05;;;;;;;3.33;1.92;;;18.90;99.90;;;;;;5041538;28;20025;-75
2021/05/18 16:16:31;;;;;;;1.58;1.48;;;18.90;99.90;;;;;;5044024;28;20025;-76
2021/05/18 16:18:57;;;;;;;2.83;1.90;;;18.20;99.90;;;;;;5052758;28;20032;-75
2021/05/18 16:21:24;;;;;;;2.22;1.70;;;17.40;99.90;;;;;;5052421;28;20025;-75
2021/05/18 16:23:52;;;;;;;2.33;1.48;;;17.20;99.90;;;;;;5042169;28;20029;-76
2021/05/18 16:26:20;;;;;;;4.03;1.63;;;16.30;99.90;;;;;;5052435;28;20020;-75
2021/05/18 16:28:46;;;;;;;1.95;1.50;;;15.60;99.90;;;;;;5052129;28;20032;-75
2021/05/18 16:31:12;;;;;;;3.33;1.40;;;16.20;99.90;;;;;;5052079;28;20025;-75
2021/05/18 16:33:40;;;;;;;2.38;1.30;;;16.00;99.90;;;;;;5052150;28;20083;-75
2021/05/18 16:36:07;;;;;;;3.22;1.25;;;15.40;99.90;;;;;;5048258;28;20025;-75
2021/05/18 16:38:34;;;;;;;1.65;1.40;;;15.00;99.90;;;;;;5051841;28;20472;-75
2021/05/18 16:40:59;;;;;;;3.88;1.80;;;15.60;99.90;;;;;;5040913;28;20049;-75
2021/05/18 16:43:26;;;;;;;1.83;1.58;;;16.10;99.90;;;;;;5052043;28;20506;-75
2021/05/18 16:45:54;;;;;;;3.28;1.00;;;16.70;99.90;;;;;;5051983;28;20025;-75
2021/05/18 16:48:21;;;;;;;1.60;1.05;;;16.10;99.90;;;;;;5044996;28;20391;-76
2021/05/18 16:50:47;;;;;;;1.75;1.33;;;15.30;99.90;;;;;;5048439;28;20411;-74
2021/05/18 16:53:14;;;;;;;1.77;1.30;;;15.20;99.90;;;;;;5051862;28;20025;-75
2021/05/18 16:55:40;;;;;;;1.10;1.00;;;15.60;99.90;;;;;;5051914;28;20025;-75
2021/05/18 16:58:06;;;;;;;1.15;1.05;;;15.90;99.90;;;;;;5042061;28;20025;-75
2021/05/18 17:00:32;;;;;;;1.38;1.20;;;15.70;99.90;;;;;;5051639;28;20089;-75
2021/05/18 17:02:58;;;;;;;3.05;1.08;;;15.60;99.90;;;;;;5051773;28;20021;-75
2021/05/18 17:05:26;;;;;;;2.17;1.00;;;15.60;99.90;;;;;;5051711;28;20506;-75
2021/05/18 17:07:55;;;;;;;1.42;1.00;;;15.50;99.90;;;;;;5051280;28;20384;-75
2021/05/18 17:10:22;;;;;;;1.27;1.10;;;15.40;99.90;;;;;;5051501;28;20081;-75
2021/05/18 17:12:49;;;;;;;1.83;0.90;;;15.30;99.90;;;;;;5041872;28;20032;-75
2021/05/18 17:15:15;;;;;;;1.45;1.00;;;14.80;99.90;;;;;;5051609;28;20025;-76
2021/05/18 17:17:41;;;;;;;1.65;1.08;;;14.60;99.90;;;;;;5051889;28;20548;-75
2021/05/18 17:20:08;;;;;;;1.10;1.00;;;14.20;99.90;;;;;;5051653;28;20025;-75
2021/05/18 17:22:33;;;;;;;0.90;0.90;;;13.80;99.90;;;;;;5043765;28;20056;-75
2021/05/18 17:24:59;;;;;;;2.10;0.88;;;13.60;99.90;;;;;;5051581;28;20029;-75
2021/05/18 17:27:24;;;;;;;1.00;0.90;;;13.70;99.90;;;;;;5041689;28;20502;-75
2021/05/18 17:29:50;;;;;;;1.55;1.10;;;13.50;99.90;;;;;;5051042;28;20029;-75
2021/05/18 17:32:16;;;;;;;2.05;1.08;;;13.60;99.90;;;;;;5051496;28;20017;-75
2021/05/18 17:34:42;;;;;;;1.52;1.13;;;13.70;99.90;;;;;;5045095;28;20021;-75
2021/05/18 17:37:10;;;;;;;2.38;1.10;;;13.60;99.90;;;;;;5051027;28;20396;-75
2021/05/18 17:39:39;;;;;;;2.78;1.10;;;13.60;99.90;;;;;;5051163;28;20504;-75
2021/05/18 17:42:06;;;;;;;1.30;1.20;;;13.60;99.90;;;;;;5051318;28;20025;-75
2021/05/18 17:44:32;;;;;;;1.05;0.95;;;13.80;99.90;;;;;;5051544;28;20381;-75
2021/05/18 17:46:57;;;;;;;2.45;1.20;;;13.60;99.90;;;;;;5051333;28;20028;-75
2021/05/18 17:49:23;;;;;;;1.25;1.10;;;13.50;99.90;;;;;;5050885;28;20025;-75
2021/05/18 17:51:50;;;;;;;2.97;1.20;;;13.60;99.90;;;;;;5033823;28;20079;-75
2021/05/18 17:54:16;;;;;;;0.95;0.93;;;13.60;99.90;;;;;;5050995;28;20034;-75